Commodore Goodwill — C6NU8 — position and weather

sailwx.info

Track history (hours):
 
Tides and Currents Weather Stations Pressure Air Temp Water Temp Dewpoint Dewpoint Depression Visibility Wind Speed Wind Dir Waves Ship Positions

Commodore Goodwill

Operator: Condor Marine Services

Last reported at 2020-Sep-18 04:58 UTC. Time now 2020-Sep-18 07:00 UTC.
Position N 49°11' W 002°07'.

Length 126 m; draft 5 m.

Type: Ship (hazmat cat C). MMSI: 309536000.

Date/timePositionNaut miles runAvg speedWind from/ knotsBaromVisibWave heightAir tempDewpointWater temp
2020-Sep-18 04:58N 49°11' W 002°07'10 5.2
2020-Sep-18 03:01N 49°15' W 002°21'1912.6
2020-Sep-18 01:30N 49°32' W 002°11'816.5
2020-Sep-18 01:00N 49°40' W 002°07'7814.3
2020-Sep-17 19:30N 50°48' W 001°07'1 0.3
2020-Sep-17 17:01N 50°49' W 001°06'2 1.0
2020-Sep-17 15:31N 50°47' W 001°07'1211.5
2020-Sep-17 14:30N 50°36' W 001°08'3614.3
2020-Sep-17 12:00N 50°06' W 001°38'5212.9
2020-Sep-17 08:00N 49°27' W 002°32'0 0.0
2020-Sep-17 07:30N 49°27' W 002°32'0 0.0
2020-Sep-17 07:00N 49°27' W 002°32'5 9.8
2020-Sep-17 06:30N 49°23' W 002°27'18 5.8
2020-Sep-17 03:21N 49°11' W 002°07'0 0.0
2020-Sep-17 03:00N 49°11' W 002°07'13 8.6
2020-Sep-17 01:30N 49°22' W 002°17'714.0
2020-Sep-17 01:01N 49°28' W 002°13'714.3
2020-Sep-17 00:31N 49°35' W 002°08'816.2
2020-Sep-17 00:01N 49°42' W 002°05'6318.0
2020-Sep-16 20:30N 50°35' W 001°10'14 7.2
2020-Sep-16 18:30N 50°49' W 001°06'0 0.0
2020-Sep-16 18:01N 50°49' W 001°06'0 0.0
2020-Sep-16 17:00N 50°49' W 001°06'0 0.0
2020-Sep-16 16:30N 50°49' W 001°06'39 8.6
2020-Sep-16 12:00N 50°14' W 001°32'6713.4
2020-Sep-16 07:00N 49°11' W 002°07'0 0.0
2020-Sep-16 05:00N 49°11' W 002°07'3 6.7
2020-Sep-16 04:31N 49°10' W 002°12'816.8
2020-Sep-16 04:01N 49°15' W 002°22'1414.0
2020-Sep-16 03:00N 49°27' W 002°32'23 7.6
2020-Sep-16 00:00N 49°42' W 002°04'816.1
2020-Sep-15 23:30N 49°49' W 001°59'1514.8
2020-Sep-15 22:30N 50°02' W 001°48'3216.1
2020-Sep-15 20:30N 50°27' W 001°17'11 1.6
2020-Sep-15 14:00N 50°35' W 001°06'713.2
2020-Sep-15 13:30N 50°30' W 001°12'2113.7
2020-Sep-15 12:00N 50°13' W 001°31'3915.4
2020-Sep-15 09:31N 49°41' W 002°05'3215.8
2020-Sep-15 07:30N 49°10' W 002°14'4 2.2
2020-Sep-15 05:31N 49°11' W 002°07'23 9.3
2020-Sep-15 03:00N 49°27' W 002°32'0 0.0
2020-Sep-15 02:31N 49°27' W 002°32'6011.0
2020-Sep-14 21:01N 50°13' W 001°30'1717.3
2020-Sep-14 20:01N 50°28' W 001°16'15 2.8
2020-Sep-14 14:30N 50°41' W 001°03'2613.1
2020-Sep-14 12:31N 50°19' W 001°27'3413.7
2020-Sep-14 10:01N 49°50' W 001°55'40 8.4
2020-Sep-14 05:12N 49°11' W 002°07'0 0.1
2020-Sep-14 04:55N 49°11' W 002°07'1010.9
2020-Sep-14 04:00N 49°14' W 002°21'611.2
2020-Sep-14 03:30N 49°19' W 002°25'611.5
2020-Sep-14 03:00N 49°24' W 002°28'4 8.3
2020-Sep-14 02:30N 49°27' W 002°32'9 6.3
2020-Sep-14 01:00N 49°30' W 002°18'2510.2
2020-Sep-13 22:30N 49°51' W 001°55'5 9.3
2020-Sep-13 22:00N 49°55' W 001°51'5 9.8
2020-Sep-13 21:30N 49°59' W 001°47'5610.2
2020-Sep-13 16:00N 50°49' W 001°06'0 0.0
2020-Sep-13 15:30N 50°49' W 001°06'0 0.0
2020-Sep-13 14:30N 50°49' W 001°06'0 0.0
2020-Sep-13 13:30N 50°49' W 001°06'0 0.0
2020-Sep-13 09:00N 50°49' W 001°06'0 0.0
2020-Sep-13 08:30N 50°49' W 001°06'11 3.2
2020-Sep-13 05:00N 50°37' W 001°07'612.7
2020-Sep-13 04:30N 50°32' W 001°12'2911.4
2020-Sep-13 01:58N 50°08' W 001°38'2811.5
2020-Sep-12 23:30N 49°45' W 002°02'19 7.6
2020-Sep-12 21:00N 49°27' W 002°14'4 7.6
2020-Sep-12 20:30N 49°24' W 002°16'8 7.9
2020-Sep-12 19:30N 49°18' W 002°24'9 4.3
2020-Sep-12 17:30N 49°10' W 002°17'7 4.4
2020-Sep-12 16:00N 49°11' W 002°07'0 0.0
2020-Sep-12 15:30N 49°11' W 002°07'0 0.0
2020-Sep-12 14:29N 49°11' W 002°07'0 0.0
2020-Sep-12 09:58N 49°11' W 002°07'0 0.0
2020-Sep-12 08:29N 49°11' W 002°07'0 0.0
2020-Sep-12 06:30N 49°11' W 002°07'0 0.0
2020-Sep-12 05:00N 49°11' W 002°07'4 7.9
2020-Sep-12 04:30N 49°10' W 002°13'19 6.2
2020-Sep-12 01:31N 49°26' W 002°26'1912.8
2020-Sep-12 00:00N 49°40' W 002°05'2415.5
2020-Sep-11 22:29N 49°59' W 001°44'5315.2
2020-Sep-11 19:01N 50°46' W 001°05'61 7.4
2020-Sep-11 10:52N 49°53' W 001°52'2815.2
2020-Sep-11 09:00N 49°29' W 002°13'815.3
2020-Sep-11 08:30N 49°21' W 002°17'714.9
2020-Sep-11 08:00N 49°14' W 002°21'10 6.2
2020-Sep-11 06:28N 49°11' W 002°07'0 0.0
2020-Sep-11 05:52N 49°11' W 002°07'12 6.4
2020-Sep-11 04:01N 49°17' W 002°23'918.0
2020-Sep-11 03:31N 49°25' W 002°29'26 6.6
2020-Sep-10 23:30N 49°45' W 002°03'6616.4
2020-Sep-10 19:30N 50°39' W 001°05'1 0.2
2020-Sep-10 14:30N 50°40' W 001°04'7715.4
2020-Sep-10 09:31N 49°36' W 002°08'2617.2
2020-Sep-10 08:00N 49°11' W 002°18'1 0.3
2020-Sep-10 05:00N 49°10' W 002°17'1913.0
2020-Sep-10 03:31N 49°27' W 002°31'7 3.3
2020-Sep-10 01:30N 49°28' W 002°21'3513.7
2020-Sep-09 22:59N 49°56' W 001°50'5816.6
2020-Sep-09 19:30N 50°47' W 001°06'2 1.4
2020-Sep-09 18:00N 50°49' W 001°06'0 0.0
2020-Sep-09 17:30N 50°49' W 001°06'0 0.0
2020-Sep-09 16:00N 50°49' W 001°06'3110.3
2020-Sep-09 12:58N 50°20' W 001°25'3919.8
2020-Sep-09 11:00N 49°48' W 001°60'3019.7
2020-Sep-09 09:31N 49°19' W 001°54'1017.5
2020-Sep-09 08:57N 49°09' W 001°55'8 7.9
2020-Sep-09 07:58N 49°11' W 002°07'0 0.0
2020-Sep-09 06:56N 49°11' W 002°07'0 0.0
2020-Sep-09 06:00N 49°11' W 002°07'23 7.8
2020-Sep-09 03:00N 49°27' W 002°32'8 8.3
2020-Sep-09 02:00N 49°30' W 002°19'1615.7
2020-Sep-09 01:01N 49°42' W 002°05'815.1
2020-Sep-09 00:31N 49°49' W 001°59'1515.3
2020-Sep-08 23:30N 50°01' W 001°44'5412.0
2020-Sep-08 19:00N 50°49' W 001°06'0 0.0
2020-Sep-08 16:31N 50°49' W 001°06'1 0.5
2020-Sep-08 15:30N 50°49' W 001°06'1111.1
2020-Sep-08 14:31N 50°38' W 001°07'1312.6
2020-Sep-08 13:30N 50°27' W 001°18'1115.6
2020-Sep-08 12:49N 50°18' W 001°28'7519.6
2020-Sep-08 09:00N 49°11' W 002°19'8 7.2
2020-Sep-08 07:56N 49°11' W 002°07'5 2.2
2020-Sep-08 05:30N 49°10' W 002°15'  
Track history (hours):
 
Tides and Currents Weather Stations Pressure Air Temp Water Temp Dewpoint Dewpoint Depression Visibility Wind Speed Wind Dir Waves Ship Positions

Commodore Goodwill

Operator: Condor Marine Services

Last reported at 2020-Sep-18 04:58 UTC. Time now 2020-Sep-18 07:00 UTC.
Position N 49°11' W 002°07'.

Length 126 m; draft 5 m.

Type: Ship (hazmat cat C). MMSI: 309536000.

Date/timePositionNaut miles runAvg speedWind from/ knotsBaromVisibWave heightAir tempDewpointWater temp
2020-Sep-18 04:58N 49°11' W 002°07'10 5.2
2020-Sep-18 03:01N 49°15' W 002°21'1912.6
2020-Sep-18 01:30N 49°32' W 002°11'816.5
2020-Sep-18 01:00N 49°40' W 002°07'7814.3
2020-Sep-17 19:30N 50°48' W 001°07'1 0.3
2020-Sep-17 17:01N 50°49' W 001°06'2 1.0
2020-Sep-17 15:31N 50°47' W 001°07'1211.5
2020-Sep-17 14:30N 50°36' W 001°08'3614.3
2020-Sep-17 12:00N 50°06' W 001°38'5212.9
2020-Sep-17 08:00N 49°27' W 002°32'0 0.0
2020-Sep-17 07:30N 49°27' W 002°32'0 0.0
2020-Sep-17 07:00N 49°27' W 002°32'5 9.8
2020-Sep-17 06:30N 49°23' W 002°27'18 5.8
2020-Sep-17 03:21N 49°11' W 002°07'0 0.0
2020-Sep-17 03:00N 49°11' W 002°07'13 8.6
2020-Sep-17 01:30N 49°22' W 002°17'714.0
2020-Sep-17 01:01N 49°28' W 002°13'714.3
2020-Sep-17 00:31N 49°35' W 002°08'816.2
2020-Sep-17 00:01N 49°42' W 002°05'6318.0
2020-Sep-16 20:30N 50°35' W 001°10'14 7.2
2020-Sep-16 18:30N 50°49' W 001°06'0 0.0
2020-Sep-16 18:01N 50°49' W 001°06'0 0.0
2020-Sep-16 17:00N 50°49' W 001°06'0 0.0
2020-Sep-16 16:30N 50°49' W 001°06'39 8.6
2020-Sep-16 12:00N 50°14' W 001°32'6713.4
2020-Sep-16 07:00N 49°11' W 002°07'0 0.0
2020-Sep-16 05:00N 49°11' W 002°07'3 6.7
2020-Sep-16 04:31N 49°10' W 002°12'816.8
2020-Sep-16 04:01N 49°15' W 002°22'1414.0
2020-Sep-16 03:00N 49°27' W 002°32'23 7.6
2020-Sep-16 00:00N 49°42' W 002°04'816.1
2020-Sep-15 23:30N 49°49' W 001°59'1514.8
2020-Sep-15 22:30N 50°02' W 001°48'3216.1
2020-Sep-15 20:30N 50°27' W 001°17'11 1.6
2020-Sep-15 14:00N 50°35' W 001°06'713.2
2020-Sep-15 13:30N 50°30' W 001°12'2113.7
2020-Sep-15 12:00N 50°13' W 001°31'3915.4
2020-Sep-15 09:31N 49°41' W 002°05'3215.8
2020-Sep-15 07:30N 49°10' W 002°14'4 2.2
2020-Sep-15 05:31N 49°11' W 002°07'23 9.3
2020-Sep-15 03:00N 49°27' W 002°32'0 0.0
2020-Sep-15 02:31N 49°27' W 002°32'6011.0
2020-Sep-14 21:01N 50°13' W 001°30'1717.3
2020-Sep-14 20:01N 50°28' W 001°16'15 2.8
2020-Sep-14 14:30N 50°41' W 001°03'2613.1
2020-Sep-14 12:31N 50°19' W 001°27'3413.7
2020-Sep-14 10:01N 49°50' W 001°55'40 8.4
2020-Sep-14 05:12N 49°11' W 002°07'0 0.1
2020-Sep-14 04:55N 49°11' W 002°07'1010.9
2020-Sep-14 04:00N 49°14' W 002°21'611.2
2020-Sep-14 03:30N 49°19' W 002°25'611.5
2020-Sep-14 03:00N 49°24' W 002°28'4 8.3
2020-Sep-14 02:30N 49°27' W 002°32'9 6.3
2020-Sep-14 01:00N 49°30' W 002°18'2510.2
2020-Sep-13 22:30N 49°51' W 001°55'5 9.3
2020-Sep-13 22:00N 49°55' W 001°51'5 9.8
2020-Sep-13 21:30N 49°59' W 001°47'5610.2
2020-Sep-13 16:00N 50°49' W 001°06'0 0.0
2020-Sep-13 15:30N 50°49' W 001°06'0 0.0
2020-Sep-13 14:30N 50°49' W 001°06'0 0.0
2020-Sep-13 13:30N 50°49' W 001°06'0 0.0
2020-Sep-13 09:00N 50°49' W 001°06'0 0.0
2020-Sep-13 08:30N 50°49' W 001°06'11 3.2
2020-Sep-13 05:00N 50°37' W 001°07'612.7
2020-Sep-13 04:30N 50°32' W 001°12'2911.4
2020-Sep-13 01:58N 50°08' W 001°38'2811.5
2020-Sep-12 23:30N 49°45' W 002°02'19 7.6
2020-Sep-12 21:00N 49°27' W 002°14'4 7.6
2020-Sep-12 20:30N 49°24' W 002°16'8 7.9
2020-Sep-12 19:30N 49°18' W 002°24'9 4.3
2020-Sep-12 17:30N 49°10' W 002°17'7 4.4
2020-Sep-12 16:00N 49°11' W 002°07'0 0.0
2020-Sep-12 15:30N 49°11' W 002°07'0 0.0
2020-Sep-12 14:29N 49°11' W 002°07'0 0.0
2020-Sep-12 09:58N 49°11' W 002°07'0 0.0
2020-Sep-12 08:29N 49°11' W 002°07'0 0.0
2020-Sep-12 06:30N 49°11' W 002°07'0 0.0
2020-Sep-12 05:00N 49°11' W 002°07'4 7.9
2020-Sep-12 04:30N 49°10' W 002°13'19 6.2
2020-Sep-12 01:31N 49°26' W 002°26'1912.8
2020-Sep-12 00:00N 49°40' W 002°05'2415.5
2020-Sep-11 22:29N 49°59' W 001°44'5315.2
2020-Sep-11 19:01N 50°46' W 001°05'61 7.4
2020-Sep-11 10:52N 49°53' W 001°52'2815.2
2020-Sep-11 09:00N 49°29' W 002°13'815.3
2020-Sep-11 08:30N 49°21' W 002°17'714.9
2020-Sep-11 08:00N 49°14' W 002°21'10 6.2
2020-Sep-11 06:28N 49°11' W 002°07'0 0.0
2020-Sep-11 05:52N 49°11' W 002°07'12 6.4
2020-Sep-11 04:01N 49°17' W 002°23'918.0
2020-Sep-11 03:31N 49°25' W 002°29'26 6.6
2020-Sep-10 23:30N 49°45' W 002°03'6616.4
2020-Sep-10 19:30N 50°39' W 001°05'1 0.2
2020-Sep-10 14:30N 50°40' W 001°04'7715.4
2020-Sep-10 09:31N 49°36' W 002°08'2617.2
2020-Sep-10 08:00N 49°11' W 002°18'1 0.3
2020-Sep-10 05:00N 49°10' W 002°17'1913.0
2020-Sep-10 03:31N 49°27' W 002°31'7 3.3
2020-Sep-10 01:30N 49°28' W 002°21'3513.7
2020-Sep-09 22:59N 49°56' W 001°50'5816.6
2020-Sep-09 19:30N 50°47' W 001°06'2 1.4
2020-Sep-09 18:00N 50°49' W 001°06'0 0.0
2020-Sep-09 17:30N 50°49' W 001°06'0 0.0
2020-Sep-09 16:00N 50°49' W 001°06'3110.3
2020-Sep-09 12:58N 50°20' W 001°25'3919.8
2020-Sep-09 11:00N 49°48' W 001°60'3019.7
2020-Sep-09 09:31N 49°19' W 001°54'1017.5
2020-Sep-09 08:57N 49°09' W 001°55'8 7.9
2020-Sep-09 07:58N 49°11' W 002°07'0 0.0
2020-Sep-09 06:56N 49°11' W 002°07'0 0.0
2020-Sep-09 06:00N 49°11' W 002°07'23 7.8
2020-Sep-09 03:00N 49°27' W 002°32'8 8.3
2020-Sep-09 02:00N 49°30' W 002°19'1615.7
2020-Sep-09 01:01N 49°42' W 002°05'815.1
2020-Sep-09 00:31N 49°49' W 001°59'1515.3
2020-Sep-08 23:30N 50°01' W 001°44'5412.0
2020-Sep-08 19:00N 50°49' W 001°06'0 0.0
2020-Sep-08 16:31N 50°49' W 001°06'1 0.5
2020-Sep-08 15:30N 50°49' W 001°06'1111.1
2020-Sep-08 14:31N 50°38' W 001°07'1312.6
2020-Sep-08 13:30N 50°27' W 001°18'1115.6
2020-Sep-08 12:49N 50°18' W 001°28'7519.6
2020-Sep-08 09:00N 49°11' W 002°19'8 7.2
2020-Sep-08 07:56N 49°11' W 002°07'5 2.2
2020-Sep-08 05:30N 49°10' W 002°15'  

Dump ship's entire track history